Impacts METAR Board
IDs:

KBMQ - Burnet Muni, TX, US

Updated at: 0400 UTC 18 Jan 2022
Potential Impact None Slight Moderate High
Time 17/16Z 17/17Z 17/18Z 17/19Z 17/20Z 17/21Z 17/22Z 17/23Z 18/00Z 18/01Z 18/02Z 18/03Z 18/04Z
Temp51 58 60 63 65 66 67 66 62 57 50 50 46
Dewpt24 24 24 27 27 27 29 29 27 28 29 26 25
Altim30.20 30.20 30.18 30.14 30.11 30.09 30.07 30.06 30.05 30.06 30.07 30.06 30.06
VIS10 10 10 10 10 10 10 10 10 10 10 10 10
CIG-- -- -- -- -- -- -- -- -- -- -- -- --
CoverCLRCLRCLRCLRCLRCLRCLRCLRCLRCLRCLRCLRCLR
FltCatVFRVFRVFRVFRVFRVFRVFRVFRVFRVFRVFRVFRVFR
WX--------------------------
WDir10010013013001900130150021000
WSpd6 5 8 6 3 5 5 9 4 0 3 0 0
WGst-- -- -- -- -- -- -- -- -- -- -- -- --
Raw hourly METARs
KBMQ 171553Z AUTO 10006KT 10SM CLR 11/M04 A3020 RMK AO2 SLP225 T01061044
KBMQ 171653Z AUTO 10005KT 10SM CLR 14/M04 A3020 RMK AO2 SLP225 T01441044
KBMQ 171753Z AUTO 13008KT 10SM CLR 16/M04 A3018 RMK AO2 SLP218 T01561044 10161 20000 58000
KBMQ 171853Z AUTO 13006KT 10SM CLR 17/M03 A3014 RMK AO2 SLP204 T01721028
KBMQ 171953Z AUTO VRB03KT 10SM CLR 18/M03 A3011 RMK AO2 SLP191 T01831028
KBMQ 172053Z AUTO 19005KT 10SM CLR 19/M03 A3009 RMK AO2 SLP182 T01891028 56031
KBMQ 172153Z AUTO VRB05KT 10SM CLR 19/M02 A3007 RMK AO2 SLP179 T01941017
KBMQ 172253Z AUTO 13009KT 10SM CLR 19/M02 A3006 RMK AO2 SLP175 T01891017
KBMQ 172353Z AUTO 15004KT 10SM CLR 17/M03 A3005 RMK AO2 SLP174 T01671028 10200 20156 56010
KBMQ 180053Z AUTO 00000KT 10SM CLR 14/M02 A3006 RMK AO2 SLP178 T01391022
KBMQ 180153Z AUTO 21003KT 10SM CLR 10/M02 A3007 RMK AO2 SLP184 T01001017
KBMQ 180253Z AUTO 00000KT 10SM CLR 10/M03 A3006 RMK AO2 SLP178 T01001033 50003
KBMQ 180353Z AUTO 00000KT 10SM CLR 08/M04 A3006 RMK AO2 SLP176 T00781039